Airfield :
LOGIN :

Register | Disclaimer

   EN    FR    IT 

 










Legend :    VFR   Marginal VFR   IFR   Intensive IFR   Very Intensive IFR
Visi :
Ceiling :
>= 8 km
>= 3000ft
5 to 8 km
1000 to 3000 ft
1500m to 5 km
500 to 1000 ft
800 to 1500m
200 to 500 ft
< 800m
< 200 ft
Symbols :   Thunderstorms  Fog  Heavy snow  Heavy precipitations  Wind > 20 kt
SIGMETs :     Misc.  Thunderstorms  Icing  Turbulence  Mountain Waves  Volcanic Ashes






- Airport Elevation : 1083 ft


LRCT - Câmpia Turzii Air Base

CURRENT METAR :
  • 281700Z 15004KT 6000 BKN070 OVC100 03/02 Q1008 WHT WHT

EXPIRED METARs :
  • 281600Z 10003KT 5000 BR BKN090 02/01 Q1008 WHT WHT
  • 281500Z 10002KT 6000 BKN090 03/02 Q1008 WHT WHT

TAF TAF LRCT
Valid from the 28 at 18:00 until the 29 at 18:00 UTC


281700Z 2818/2918 16005KT 7000 BKN070
BECMG 2821/2823 5000 -RA BR BKN030 OVC050
TEMPO 2901/2905 3000 -RA BR BKN015
BECMG 2907/2909 23012KT 9999 SCT030



MET'MAP, your aeronautical weather chart ! - Copyright ORBIFLY December 2007 - Disclaimer

ORBIFLY MET'MAP TEAM :

Programming & Development : Alexandra Zaïnal
Concept & original design : Baudouin d'Aumeries
Assistance for programming : Marc-Olivier Méhu
Technical & hardware support : Manuel Goepfert

Contact : metmap@orbifly.com




SOURCES & CREDITS :

   NOAA